PGRO/ROP METAR and TAF weather

Enter ICAO airport designator
Station Type Date Time Source
PGRO METAR 2018/12/15 23:50 UTC NOAA

PGRO 152350Z 02014KT 7SM BKN012 BKN100 26/24 A2985 RMK WIND DATA ESTIMATED


Station Type Date Time Source
PGRO Decoded METAR 2018/12/15 23:50 UTC NOAA

Rota Island, N. Mariana Is, Rota International Airport, GU, United States (PGRO) 14-11N 145-15E
Dec 15, 2018 - 06:50 PM EST / 2018.12.15 2350 UTC
Wind: from the NNE (020 degrees) at 16 MPH (14 KT):0
Visibility: 7 mile(s):0
Sky conditions: mostly cloudy
Temperature: 78 F (26 C)
Dew Point: 75 F (24 C)
Relative Humidity: 88%
Pressure (altimeter): 29.85 in. Hg (1010 hPa)
ob: PGRO 152350Z 02014KT 7SM BKN012 BKN100 26/24 A2985 RMK WIND DATA ESTIMATED
cycle: 0

Station Type Date Time Source
PGRO TAF 2018/12/15 21:57 UTC NOAA

TAF PGRO 152054Z 1521/1618 03012KT P6SM VCSH FEW018 SCT040 BKN140
TEMPO 1521/1524 5SM SHRA SCT014 BKN030
FM160000 03016G28KT P6SM VCSH FEW018 SCT040 BKN140
FM160900 04014KT P6SM VCSH SCT016 SCT040 BKN140


Example: see airport list